Time;durP1;ratioP1;P1;durP2;ratioP2;P2;SDS_P1;SDS_P2;PMS_P1;PMS_P2;Temp;Humidity;BMP_temperature;BMP_pressure;BME280_temperature;BME280_humidity;BME280_pressure;Samples;Min_cycle;Max_cycle;Signal;HPM_P1;HPM_P2
2022/10/07 00:01:18;;;;;;;15.35;6.43;;;;;;;6.30;100.00;102770.44;5014591;28;20042;-80
2022/10/07 00:03:43;;;;;;;16.85;5.80;;;;;;;6.28;100.00;102773.88;5032861;28;20076;-81
2022/10/07 00:06:14;;;;;;;11.93;5.38;;;;;;;6.28;100.00;102766.16;5034276;28;20013;-80
2022/10/07 00:08:42;;;;;;;15.38;5.63;;;;;;;6.26;100.00;102773.03;5036568;28;20026;-81
2022/10/07 00:11:11;;;;;;;12.35;5.63;;;;;;;6.25;100.00;102766.22;5036489;28;20087;-81
2022/10/07 00:13:39;;;;;;;16.50;5.60;;;;;;;6.26;100.00;102762.78;5036652;28;20064;-81
2022/10/07 00:16:08;;;;;;;16.60;6.13;;;;;;;6.15;100.00;102749.25;5036708;28;20502;-81
2022/10/07 00:18:35;;;;;;;15.45;6.80;;;;;;;6.18;100.00;102760.31;5036425;28;20480;-80
2022/10/07 00:21:05;;;;;;;18.33;5.85;;;;;;;6.12;100.00;102749.31;5036454;28;20030;-80
2022/10/07 00:23:31;;;;;;;16.20;6.00;;;;;;;5.99;100.00;102739.19;5036451;28;20021;-81
2022/10/07 00:26:02;;;;;;;14.57;5.05;;;;;;;6.14;100.00;102755.25;5036536;28;20040;-80
2022/10/07 00:28:28;;;;;;;15.38;5.95;;;;;;;6.11;100.00;102739.91;5036377;28;20056;-79
2022/10/07 00:30:58;;;;;;;16.38;6.15;;;;;;;6.14;100.00;102752.69;5036090;28;20053;-79
2022/10/07 00:33:23;;;;;;;14.73;5.97;;;;;;;6.13;100.00;102735.63;5036122;28;20025;-79
2022/10/07 00:35:49;;;;;;;14.77;5.63;;;;;;;6.09;100.00;102731.38;5035646;28;20024;-80
2022/10/07 00:38:14;;;;;;;12.90;5.63;;;;;;;6.09;100.00;102745.03;5036095;28;20069;-81
2022/10/07 00:40:40;;;;;;;11.75;5.68;;;;;;;5.97;100.00;102717.84;5001332;28;20413;-81
2022/10/07 00:43:23;;;;;;;14.20;5.47;;;;;;;5.86;100.00;102688.91;5016257;28;20030;-79
2022/10/07 00:45:49;;;;;;;15.20;6.22;;;;;;;6.02;100.00;102713.53;5016059;28;20477;-80
2022/10/07 00:48:20;;;;;;;17.77;7.07;;;;;;;5.97;100.00;102705.03;5016160;28;20030;-80
2022/10/07 00:50:50;;;;;;;13.70;5.93;;;;;;;6.03;100.00;102717.78;5015634;28;20389;-81
2022/10/07 00:53:16;;;;;;;14.88;5.72;;;;;;;6.01;100.00;102732.34;5015987;28;20388;-78
2022/10/07 00:55:42;;;;;;;15.07;5.93;;;;;;;6.05;100.00;102728.00;5016215;28;20034;-81
2022/10/07 00:58:08;;;;;;;18.05;5.97;;;;;;;6.01;100.00;102724.66;5016038;28;20034;-81
2022/10/07 01:00:35;;;;;;;15.77;5.68;;;;;;;6.01;100.00;102724.66;5015981;28;20041;-81
2022/10/07 01:03:00;;;;;;;15.45;5.30;;;;;;;6.03;100.00;102716.94;5015732;28;20497;-74
2022/10/07 01:05:26;;;;;;;13.02;5.43;;;;;;;6.04;100.00;102711.78;5015773;28;20061;-74
2022/10/07 01:07:52;;;;;;;18.02;5.95;;;;;;;6.06;100.00;102714.31;5015870;28;20469;-75
2022/10/07 01:10:20;;;;;;;16.40;6.00;;;;;;;6.00;100.00;102696.47;5015722;28;20112;-75
2022/10/07 01:13:16;;;;;;;15.32;5.32;;;;;;;5.99;100.00;102697.31;5015786;28;20086;-75
2022/10/07 01:15:49;;;;;;;13.25;5.40;;;;;;;5.98;100.00;102682.81;5015542;28;20022;-77
2022/10/07 01:18:40;;;;;;;19.00;6.00;;;;;;;6.06;100.00;102687.81;5015407;28;20026;-75
2022/10/07 01:21:39;;;;;;;17.83;5.75;;;;;;;6.06;100.00;102685.25;5015475;28;20373;-75
2022/10/07 01:24:11;;;;;;;13.38;5.50;;;;;;;6.11;100.00;102692.03;4916921;29;20111;-75
2022/10/07 01:27:00;;;;;;;17.52;5.95;;;;;;;6.14;100.00;102691.13;4916984;29;20048;-74
2022/10/07 01:29:55;;;;;;;19.10;6.15;;;;;;;6.18;100.00;102691.06;4916867;29;20563;-74
2022/10/07 01:32:31;;;;;;;14.57;5.68;;;;;;;6.20;100.00;102685.94;4916603;29;20120;-75
2022/10/07 01:34:59;;;;;;;16.70;5.38;;;;;;;6.19;100.00;102669.66;4916523;29;20040;-74
2022/10/07 01:37:30;;;;;;;18.48;6.35;;;;;;;6.11;100.00;102660.41;4900703;29;20035;-75
2022/10/07 01:40:01;;;;;;;21.00;5.73;;;;;;;6.20;100.00;102662.84;4927059;29;20062;-75
2022/10/07 01:42:27;;;;;;;21.33;6.93;;;;;;;6.15;100.00;102644.09;4935549;29;20047;-75
2022/10/07 01:44:56;;;;;;;22.85;6.40;;;;;;;6.28;100.00;102655.84;4935539;29;20028;-75
2022/10/07 01:47:21;;;;;;;14.95;5.82;;;;;;;6.29;100.00;102647.28;4935224;29;20646;-75
2022/10/07 01:49:47;;;;;;;22.33;5.88;;;;;;;6.30;100.00;102643.88;4935100;29;20059;-76
2022/10/07 01:52:23;;;;;;;17.13;5.60;;;;;;;6.28;100.00;102646.44;4935404;29;20500;-75
2022/10/07 01:54:54;;;;;;;22.50;6.38;;;;;;;6.29;100.00;102647.28;4935433;29;20115;-75
2022/10/07 01:57:38;;;;;;;18.23;6.20;;;;;;;6.12;100.00;102621.91;4935463;29;20487;-74
2022/10/07 02:00:11;;;;;;;17.20;6.35;;;;;;;5.94;100.00;102578.59;4950114;28;20045;-75
2022/10/07 02:03:06;;;;;;;14.80;6.28;;;;;;;6.28;100.00;102631.03;5034725;28;20366;-75
2022/10/07 02:05:42;;;;;;;14.95;6.00;;;;;;;6.30;100.00;102628.47;5014855;28;20038;-74
2022/10/07 02:08:38;;;;;;;15.60;5.63;;;;;;;6.31;100.00;102633.56;5034397;28;20100;-74
2022/10/07 02:11:16;;;;;;;20.13;5.85;;;;;;;6.33;100.00;102628.41;5034409;28;20033;-75
2022/10/07 02:13:57;;;;;;;18.70;6.13;;;;;;;6.31;100.00;102625.03;5034253;28;20033;-74
2022/10/07 02:16:31;;;;;;;19.92;7.70;;;;;;;6.29;100.00;102621.63;5034351;28;20423;-76
2022/10/07 02:18:59;;;;;;;22.27;7.93;;;;;;;6.25;100.00;102623.41;5034483;28;20021;-74
2022/10/07 02:21:28;;;;;;;16.33;5.55;;;;;;;6.07;100.00;102584.38;5034101;28;20029;-75
2022/10/07 02:23:55;;;;;;;16.40;6.05;;;;;;;6.01;100.00;102578.47;5034288;28;20164;-74
2022/10/07 02:26:23;;;;;;;18.92;6.78;;;;;;;6.22;100.00;102615.75;5034231;28;20064;-78
2022/10/07 02:28:51;;;;;;;17.70;6.28;;;;;;;6.19;100.00;102608.09;5033444;28;20432;-75
2022/10/07 02:31:22;;;;;;;13.50;6.00;;;;;;;6.05;100.00;102581.84;5033856;28;20536;-75
2022/10/07 02:33:52;;;;;;;17.42;6.85;;;;;;;6.19;100.00;102602.13;5033713;28;20424;-75
2022/10/07 02:36:23;;;;;;;20.67;6.78;;;;;;;6.14;100.00;102588.53;5033817;28;20497;-74
2022/10/07 02:38:48;;;;;;;21.60;7.13;;;;;;;6.15;100.00;102590.22;5033771;28;20040;-76
2022/10/07 02:41:32;;;;;;;20.55;7.65;;;;;;;6.11;100.00;102580.91;5033695;28;20029;-75
2022/10/07 02:44:19;;;;;;;26.65;7.13;;;;;;;6.05;100.00;102576.69;5033638;28;20052;-81
2022/10/07 02:46:51;;;;;;;21.10;6.18;;;;;;;6.09;100.00;102582.63;5033786;28;20445;-75
2022/10/07 02:49:20;;;;;;;19.40;6.55;;;;;;;6.09;100.00;102580.06;5033609;28;20025;-79
2022/10/07 02:51:49;;;;;;;20.67;6.82;;;;;;;6.03;100.00;102581.84;5033576;28;20037;-81
2022/10/07 02:54:19;;;;;;;16.48;5.93;;;;;;;6.00;100.00;102581.06;5033520;28;20022;-80
2022/10/07 02:56:45;;;;;;;21.70;6.65;;;;;;;5.87;100.00;102547.03;5033457;28;20084;-80
2022/10/07 02:59:13;;;;;;;14.52;6.57;;;;;;;5.88;100.00;102558.97;5033533;28;20044;-74
2022/10/07 03:01:45;;;;;;;13.93;6.50;;;;;;;5.93;100.00;102564.94;5033623;28;20030;-75
2022/10/07 03:04:11;;;;;;;;;;;;;;;5.91;100.00;102569.25;5033925;28;20108;-74
2022/10/07 03:06:36;;;;;;;17.33;7.05;;;;;;;5.78;100.00;102548.91;5033279;28;19962;-78
2022/10/07 03:09:03;;;;;;;18.85;7.57;;;;;;;5.65;100.00;102525.19;5033220;28;20473;-77
2022/10/07 03:11:28;;;;;;;18.75;6.53;;;;;;;5.88;100.00;102558.13;5033165;28;20381;-77
2022/10/07 03:13:53;;;;;;;22.40;7.65;;;;;;;5.85;100.00;102555.63;5033243;28;20036;-77
2022/10/07 03:16:19;;;;;;;18.38;7.57;;;;;;;5.74;100.00;102537.84;5033326;28;20064;-77
2022/10/07 03:18:45;;;;;;;20.75;8.13;;;;;;;5.85;100.00;102561.59;5033311;28;20025;-81
2022/10/07 03:21:10;;;;;;;16.70;6.93;;;;;;;5.74;100.00;102542.97;5033200;28;20105;-80
2022/10/07 03:23:35;;;;;;;22.17;7.07;;;;;;;5.79;100.00;102554.00;5014888;28;20388;-79
2022/10/07 03:26:01;;;;;;;17.52;7.22;;;;;;;5.78;100.00;102551.47;5032899;28;20385;-80
2022/10/07 03:28:28;;;;;;;18.38;7.45;;;;;;;5.75;100.00;102545.50;5033186;28;20025;-81
2022/10/07 03:31:02;;;;;;;19.02;6.78;;;;;;;5.72;100.00;102535.31;5032850;28;20033;-78
2022/10/07 03:33:28;;;;;;;17.20;6.95;;;;;;;5.69;100.00;102547.31;5033026;28;20389;-77
2022/10/07 03:35:53;;;;;;;19.80;7.13;;;;;;;5.67;100.00;102538.81;5033057;28;20028;-76
2022/10/07 03:38:18;;;;;;;21.42;7.45;;;;;;;5.64;100.00;102541.44;5032733;28;20017;-81
2022/10/07 03:40:44;;;;;;;17.13;7.03;;;;;;;5.54;100.00;102525.34;5033550;28;20041;-81
2022/10/07 03:43:09;;;;;;;13.20;6.50;;;;;;;5.60;100.00;102526.94;5019671;28;20120;-81
2022/10/07 03:45:42;;;;;;;14.35;7.00;;;;;;;5.46;100.00;102504.94;5037141;28;20108;-80
2022/10/07 03:48:07;;;;;;;17.20;7.10;;;;;;;5.32;100.00;102476.13;5037018;28;20029;-81
2022/10/07 03:50:33;;;;;;;22.15;7.55;;;;;;;5.64;100.00;102528.63;5037011;28;20037;-80
2022/10/07 03:52:58;;;;;;;21.67;7.32;;;;;;;5.65;100.00;102532.88;5027104;28;20145;-81
2022/10/07 03:55:23;;;;;;;18.58;7.15;;;;;;;5.63;100.00;102532.91;5017019;28;20076;-81
2022/10/07 03:57:49;;;;;;;20.35;7.15;;;;;;;5.52;100.00;102511.72;5017123;28;20022;-81
2022/10/07 04:00:15;;;;;;;19.65;7.65;;;;;;;5.60;100.00;102524.38;5017184;28;20110;-81
2022/10/07 04:02:40;;;;;;;24.02;7.82;;;;;;;5.62;100.00;102522.66;5016965;28;20465;-81
2022/10/07 04:05:05;;;;;;;21.70;7.07;;;;;;;5.35;100.00;102470.13;5016977;28;20029;-81
2022/10/07 04:07:32;;;;;;;24.08;7.55;;;;;;;5.67;100.00;102523.44;5016611;28;20065;-80
2022/10/07 04:09:57;;;;;;;22.48;8.07;;;;;;;5.70;100.00;102519.13;5016734;28;20026;-77
2022/10/07 04:12:23;;;;;;;21.60;7.60;;;;;;;5.72;100.00;102517.38;5017070;28;20080;-81
2022/10/07 04:14:49;;;;;;;23.83;8.50;;;;;;;5.80;100.00;102513.81;5016818;28;20477;-81
2022/10/07 04:17:17;;;;;;;24.45;8.25;;;;;;;5.66;100.00;102493.53;5016714;28;20021;-79
2022/10/07 04:19:43;;;;;;;22.75;8.65;;;;;;;5.73;100.00;102498.56;5016775;28;20037;-80
2022/10/07 04:22:08;;;;;;;25.00;7.57;;;;;;;5.84;100.00;102510.34;5016425;28;20285;-79
2022/10/07 04:24:34;;;;;;;24.13;8.45;;;;;;;5.80;100.00;102499.31;5016312;28;20024;-77
2022/10/07 04:26:59;;;;;;;21.73;8.20;;;;;;;5.84;100.00;102503.50;5016499;28;20076;-76
2022/10/07 04:29:24;;;;;;;21.77;8.27;;;;;;;5.52;100.00;102452.78;5016518;28;20073;-79
2022/10/07 04:31:50;;;;;;;23.63;8.57;;;;;;;5.80;100.00;102504.44;4998704;28;20042;-80
2022/10/07 04:34:15;;;;;;;22.70;9.25;;;;;;;5.62;100.00;102474.81;5016491;28;20018;-80
2022/10/07 04:36:40;;;;;;;24.27;7.95;;;;;;;5.82;100.00;102502.69;5016300;28;20470;-80
2022/10/07 04:39:06;;;;;;;20.80;8.35;;;;;;;5.73;100.00;102498.56;5015888;28;20029;-80
2022/10/07 04:41:31;;;;;;;23.48;8.85;;;;;;;5.83;100.00;102506.94;5016173;28;20057;-78
2022/10/07 04:43:56;;;;;;;21.27;9.48;;;;;;;5.79;100.00;102500.16;5016440;28;20504;-81
2022/10/07 04:46:21;;;;;;;21.08;8.05;;;;;;;5.82;100.00;102512.09;4998841;28;20026;-81
2022/10/07 04:48:47;;;;;;;34.92;9.82;;;;;;;5.83;100.00;102503.53;5016112;28;20153;-81
2022/10/07 04:51:12;;;;;;;23.75;8.20;;;;;;;5.82;100.00;102505.25;5015696;28;20427;-80
2022/10/07 04:53:38;;;;;;;19.38;8.48;;;;;;;5.83;100.00;102501.81;4998449;28;20046;-79
2022/10/07 04:56:05;;;;;;;21.88;8.50;;;;;;;5.85;100.00;102505.19;5016151;28;20112;-79
2022/10/07 04:58:31;;;;;;;25.67;9.70;;;;;;;5.89;100.00;102511.94;5015952;28;20114;-77
2022/10/07 05:00:58;;;;;;;25.10;8.65;;;;;;;5.56;100.00;102443.31;5015928;28;20037;-80
2022/10/07 05:03:26;;;;;;;24.05;9.52;;;;;;;5.81;100.00;102480.50;5015926;28;20029;-81
2022/10/07 05:05:54;;;;;;;24.20;10.07;;;;;;;5.77;100.00;102478.84;5016221;28;20355;-81
2022/10/07 05:08:23;;;;;;;22.35;9.10;;;;;;;5.83;100.00;102489.00;5015836;28;20591;-80
2022/10/07 05:10:57;;;;;;;25.10;8.60;;;;;;;5.73;100.00;102477.22;5015476;28;20041;-78
2022/10/07 05:13:24;;;;;;;25.95;9.85;;;;;;;5.74;100.00;102481.47;5015792;28;20037;-81
2022/10/07 05:15:55;;;;;;;22.83;8.77;;;;;;;5.68;100.00;102467.00;5015786;28;20025;-80
2022/10/07 05:18:22;;;;;;;26.23;9.70;;;;;;;5.65;100.00;102458.53;5015474;28;20034;-75
2022/10/07 05:20:48;;;;;;;27.00;9.75;;;;;;;5.83;100.00;102483.88;5015595;28;20021;-75
2022/10/07 05:23:15;;;;;;;24.50;8.80;;;;;;;5.81;100.00;102485.63;5015414;28;20033;-76
2022/10/07 05:25:42;;;;;;;22.08;9.38;;;;;;;5.76;100.00;102483.13;5015341;28;20101;-75
2022/10/07 05:28:10;;;;;;;27.65;8.82;;;;;;;5.74;100.00;102484.88;4998152;28;20034;-75
2022/10/07 05:30:35;;;;;;;25.60;9.23;;;;;;;5.73;100.00;102485.75;5015156;28;20029;-76
2022/10/07 05:33:01;;;;;;;25.13;8.48;;;;;;;5.72;100.00;102480.66;5015314;28;20030;-75
2022/10/07 05:35:27;;;;;;;28.23;9.25;;;;;;;5.70;100.00;102472.13;5015313;28;20029;-75
2022/10/07 05:37:52;;;;;;;26.67;8.93;;;;;;;5.70;100.00;102479.81;5015218;28;20033;-81
2022/10/07 05:40:19;;;;;;;24.50;9.35;;;;;;;5.67;100.00;102477.28;4996855;28;20508;-80
2022/10/07 05:42:44;;;;;;;26.55;10.02;;;;;;;5.51;100.00;102445.13;5015284;28;20388;-76
2022/10/07 05:45:10;;;;;;;19.90;8.82;;;;;;;5.68;100.00;102471.28;5014944;28;20030;-75
2022/10/07 05:47:35;;;;;;;26.48;9.00;;;;;;;5.65;100.00;102469.63;5015344;28;20033;-75
2022/10/07 05:50:00;;;;;;;26.52;10.68;;;;;;;5.53;100.00;102445.94;5015083;28;20136;-81
2022/10/07 05:52:26;;;;;;;29.50;9.00;;;;;;;5.69;100.00;102468.69;5014938;28;20034;-78
2022/10/07 05:54:51;;;;;;;26.30;8.63;;;;;;;5.71;100.00;102469.56;5014858;28;20021;-78
2022/10/07 05:57:16;;;;;;;26.88;10.55;;;;;;;5.68;100.00;102461.03;5014762;28;20026;-81
2022/10/07 05:59:43;;;;;;;25.38;9.02;;;;;;;5.70;100.00;102461.84;5014909;28;20489;-78
2022/10/07 06:02:18;;;;;;;24.10;9.00;;;;;;;5.64;100.00;102452.56;5014626;28;20071;-76
2022/10/07 06:04:47;;;;;;;21.40;8.48;;;;;;;5.44;100.00;102414.47;5014067;28;20064;-75
2022/10/07 06:07:13;;;;;;;20.95;8.77;;;;;;;5.62;100.00;102444.06;5014771;28;20045;-75
2022/10/07 06:15:08;;;;;;;30.20;10.77;;;;;;;5.82;100.00;102448.88;5015024;28;20083;-75
2022/10/07 06:17:34;;;;;;;27.40;9.55;;;;;;;5.82;100.00;102438.59;5014582;28;20037;-74
2022/10/07 06:20:00;;;;;;;23.80;8.88;;;;;;;5.91;100.00;102443.59;5014434;28;20030;-74
2022/10/07 06:22:25;;;;;;;28.48;9.25;;;;;;;5.97;100.00;102442.63;5014314;28;20029;-75
2022/10/07 06:24:55;;;;;;;24.05;8.20;;;;;;;5.83;100.00;102426.63;5014370;28;20022;-75
2022/10/07 06:27:21;;;;;;;26.42;11.45;;;;;;;6.03;100.00;102445.94;5014299;28;20057;-75
2022/10/07 06:29:46;;;;;;;31.10;9.02;;;;;;;6.09;100.00;102449.25;5014335;28;20127;-75
2022/10/07 06:32:11;;;;;;;32.33;9.32;;;;;;;6.09;100.00;102446.69;5014351;28;20029;-79
2022/10/07 06:34:37;;;;;;;24.30;8.60;;;;;;;6.15;100.00;102449.16;4996185;28;20030;-75
2022/10/07 06:37:02;;;;;;;29.48;10.10;;;;;;;6.16;100.00;102445.72;5014040;28;20029;-74
2022/10/07 06:39:27;;;;;;;30.45;9.35;;;;;;;6.26;100.00;102448.06;4996266;28;20116;-75
2022/10/07 06:41:53;;;;;;;26.40;8.38;;;;;;;6.31;100.00;102445.44;5013774;28;20029;-75
2022/10/07 06:44:19;;;;;;;19.10;8.18;;;;;;;6.38;100.00;102446.13;5013936;28;20030;-75
2022/10/07 06:46:44;;;;;;;24.23;8.82;;;;;;;6.43;100.00;102450.31;5014003;28;20033;-75
2022/10/07 06:49:09;;;;;;;23.98;8.07;;;;;;;6.37;100.00;102432.47;5013947;28;20018;-74
2022/10/07 06:51:35;;;;;;;21.30;7.60;;;;;;;6.56;100.00;102449.19;5013993;28;20104;-76
2022/10/07 06:54:01;;;;;;;28.55;8.07;;;;;;;6.66;100.00;102452.41;5013701;28;20065;-76
2022/10/07 06:56:26;;;;;;;24.45;7.68;;;;;;;6.73;100.00;102446.28;5013735;28;20512;-75
2022/10/07 06:58:52;;;;;;;27.63;7.60;;;;;;;6.65;100.00;102427.63;5013951;28;20022;-75
2022/10/07 07:01:17;;;;;;;22.38;8.27;;;;;;;6.90;100.00;102449.34;5011447;28;20425;-74
2022/10/07 07:03:42;;;;;;;21.48;7.50;;;;;;;6.97;100.00;102447.47;5014157;28;20022;-75
2022/10/07 07:06:09;;;;;;;24.20;8.70;;;;;;;7.09;100.00;102449.78;5013737;28;20390;-74
2022/10/07 07:08:35;;;;;;;20.40;7.60;;;;;;;7.19;100.00;102458.13;5013350;28;20077;-76
2022/10/07 07:13:56;;;;;;;24.52;8.02;;;;;;;7.42;100.00;102457.59;5013806;28;20037;-74
2022/10/07 07:16:23;;;;;;;23.02;7.82;;;;;;;7.50;100.00;102455.69;5013554;28;20026;-76
2022/10/07 07:18:52;;;;;;;20.65;7.18;;;;;;;7.61;100.00;102452.84;5013422;28;20033;-74
2022/10/07 07:21:17;;;;;;;19.65;7.28;;;;;;;7.70;100.00;102455.19;5013534;28;20026;-79
2022/10/07 07:23:43;;;;;;;21.60;6.90;;;;;;;7.75;100.00;102448.19;5013211;28;20037;-77
2022/10/07 07:26:08;;;;;;;20.20;7.32;;;;;;;7.88;100.00;102449.59;5013399;28;20022;-77
2022/10/07 07:28:33;;;;;;;20.15;7.82;;;;;;;7.95;100.00;102453.66;5013461;28;20025;-76
2022/10/07 07:30:59;;;;;;;21.70;7.25;;;;;;;7.90;100.00;102434.09;5013578;28;20101;-78
2022/10/07 07:33:24;;;;;;;20.58;7.35;;;;;;;8.09;100.00;102448.19;5013486;28;20495;-77
2022/10/07 07:35:49;;;;;;;21.27;7.50;;;;;;;8.17;100.00;102456.53;5013210;28;20021;-76
2022/10/07 07:38:15;;;;;;;19.83;6.78;;;;;;;8.24;100.00;102450.31;5013353;28;20033;-76
2022/10/07 07:40:41;;;;;;;21.38;6.70;;;;;;;8.16;100.00;102403.41;5026300;28;20048;-76
2022/10/07 07:43:06;;;;;;;19.85;6.20;;;;;;;8.34;100.00;102427.75;5014880;28;20407;-76
2022/10/07 07:45:35;;;;;;;23.05;5.90;;;;;;;8.44;100.00;102418.06;5032928;28;20520;-76
2022/10/07 07:48:00;;;;;;;23.60;6.40;;;;;;;8.63;100.00;102437.25;5032858;28;20021;-76
2022/10/07 07:50:26;;;;;;;23.33;6.30;;;;;;;8.71;100.00;102440.44;5032545;28;20033;-77
2022/10/07 07:52:52;;;;;;;17.73;5.93;;;;;;;8.82;100.00;102435.81;5031363;28;20029;-75
2022/10/07 07:55:19;;;;;;;20.88;5.85;;;;;;;8.93;100.00;102434.66;5032975;28;20022;-75
2022/10/07 07:57:45;;;;;;;18.52;5.82;;;;;;;9.04;100.00;102432.59;5032827;28;20025;-78
2022/10/07 08:00:11;;;;;;;19.10;5.68;;;;;;;9.17;100.00;102441.66;5032885;28;20033;-74
2022/10/07 08:02:36;;;;;;;16.33;5.63;;;;;;;9.08;100.00;102411.00;4998703;28;20061;-76
2022/10/07 08:05:02;;;;;;;18.70;5.53;;;;;;;9.30;100.00;102434.34;5032585;28;20061;-76
2022/10/07 08:07:27;;;;;;;21.85;5.28;;;;;;;9.42;100.00;102439.13;5032530;28;20028;-75
2022/10/07 08:09:52;;;;;;;21.38;5.10;;;;;;;9.50;100.00;102429.41;5032846;28;20025;-77
2022/10/07 08:12:19;;;;;;;23.10;5.65;;;;;;;9.61;100.00;102416.16;5032454;28;20072;-80
2022/10/07 08:14:45;;;;;;;18.35;5.68;;;;;;;9.71;100.00;102409.78;5032716;28;20381;-80
2022/10/07 08:17:10;;;;;;;16.55;5.32;;;;;;;9.85;100.00;102417.06;5032635;28;20021;-80
2022/10/07 08:19:35;;;;;;;22.80;5.63;;;;;;;10.00;100.00;102421.69;5032548;28;20025;-80
2022/10/07 08:22:01;;;;;;;18.15;4.53;;;;;;;10.04;98.78;102402.63;5032648;28;20057;-81
2022/10/07 08:24:26;;;;;;;19.83;5.22;;;;;;;10.41;99.35;102419.38;5032762;28;20036;-80
2022/10/07 08:26:52;;;;;;;13.15;4.63;;;;;;;10.62;97.53;102416.84;5033724;28;20034;-80
2022/10/07 08:29:20;;;;;;;19.90;5.47;;;;;;;10.66;95.22;102403.81;5036202;28;20063;-79
2022/10/07 08:31:47;;;;;;;15.45;4.90;;;;;;;10.78;94.21;102417.09;5017900;28;20046;-80
2022/10/07 08:34:13;;;;;;;19.30;5.30;;;;;;;10.86;95.03;102419.41;5036261;28;20052;-80
2022/10/07 08:36:39;;;;;;;20.60;5.40;;;;;;;11.10;93.77;102420.16;5036160;28;20104;-79
2022/10/07 08:39:05;;;;;;;15.48;4.45;;;;;;;11.29;92.20;102420.28;5036036;28;20033;-77
2022/10/07 08:41:44;;;;;;;15.13;4.25;;;;;;;11.41;91.16;102412.88;5017485;28;20038;-80
2022/10/07 08:44:12;;;;;;;17.33;4.28;;;;;;;11.62;90.73;102413.72;5035941;28;20029;-74
2022/10/07 08:46:45;;;;;;;18.90;4.30;;;;;;;11.69;89.58;102401.34;5035844;28;20025;-81
2022/10/07 08:49:16;;;;;;;16.52;4.75;;;;;;;11.82;89.07;102394.78;5035782;28;20030;-82
2022/10/07 08:51:49;;;;;;;17.87;4.20;;;;;;;11.98;88.12;102408.72;5035759;28;20029;-80
2022/10/07 08:54:18;;;;;;;15.63;4.88;;;;;;;12.01;88.28;102410.38;5035746;28;20469;-78
2022/10/07 08:56:46;;;;;;;14.00;4.50;;;;;;;11.95;88.07;102388.16;5035722;28;20033;-80
2022/10/07 08:59:25;;;;;;;11.50;3.88;;;;;;;11.76;86.70;102369.97;5035767;28;20030;-80
2022/10/07 09:01:59;;;;;;;14.02;3.90;;;;;;;11.83;86.95;102390.47;5035501;28;20025;-80
2022/10/07 09:04:54;;;;;;;17.45;4.30;;;;;;;11.78;87.02;102388.84;5035689;28;20033;-80
2022/10/07 09:07:39;;;;;;;16.70;4.72;;;;;;;11.66;86.43;102379.03;5035711;28;20033;-78
2022/10/07 09:10:17;;;;;;;13.90;4.03;;;;;;;11.67;87.23;102385.06;5035531;28;20026;-78
2022/10/07 09:13:04;;;;;;;14.25;3.90;;;;;;;11.69;87.94;102381.47;5035188;28;20025;-73
2022/10/07 09:15:50;;;;;;;18.50;4.40;;;;;;;11.73;87.05;102384.81;5035433;28;20029;-76
2022/10/07 09:18:23;;;;;;;16.63;3.70;;;;;;;11.77;86.53;102376.81;5035444;28;20031;-74
2022/10/07 09:20:53;;;;;;;16.55;4.03;;;;;;;11.66;86.44;102363.50;5035171;28;20032;-72
2022/10/07 09:23:27;;;;;;;15.98;4.65;;;;;;;11.78;86.15;102377.66;5035275;28;20029;-80
2022/10/07 09:25:53;;;;;;;15.55;4.20;;;;;;;11.78;87.91;102373.31;5035279;28;20029;-79
2022/10/07 09:28:24;;;;;;;17.23;4.38;;;;;;;11.85;86.16;102370.50;5035315;28;20032;-77
2022/10/07 09:30:49;;;;;;;;;;;;;;;11.88;86.95;102362.59;5034997;28;20030;-80
2022/10/07 09:33:19;;;;;;;16.88;4.00;;;;;;;12.05;85.61;102365.28;5033885;28;19920;-71
2022/10/07 09:35:54;;;;;;;16.52;3.60;;;;;;;12.15;85.32;102366.56;5035499;28;20022;-78
2022/10/07 09:38:44;;;;;;;16.65;3.92;;;;;;;12.07;84.96;102333.25;5033975;28;20051;-75
2022/10/07 09:41:15;;;;;;;16.45;3.75;;;;;;;12.43;83.84;102362.72;5016889;28;20069;-80
2022/10/07 09:44:05;;;;;;;14.90;3.95;;;;;;;12.54;84.63;102348.34;5034561;28;20033;-76
2022/10/07 09:46:45;;;;;;;17.63;3.92;;;;;;;12.68;83.09;102352.88;5035157;28;20388;-75
2022/10/07 09:49:27;;;;;;;14.90;3.85;;;;;;;12.73;83.41;102337.13;5034763;28;20021;-75
2022/10/07 09:52:16;;;;;;;15.02;3.92;;;;;;;12.76;82.58;102340.38;5034737;28;20029;-75
2022/10/07 09:54:43;;;;;;;18.33;3.30;;;;;;;12.80;81.77;102339.34;5034591;28;20033;-75
2022/10/07 09:57:27;;;;;;;18.25;3.65;;;;;;;12.87;83.10;102334.69;5034755;28;20025;-75
2022/10/07 10:00:12;;;;;;;15.82;3.88;;;;;;;12.83;82.59;102325.38;5034894;28;20119;-74
2022/10/07 10:03:07;;;;;;;17.42;4.20;;;;;;;12.96;83.15;102326.47;5034382;28;20033;-76
2022/10/07 10:05:35;;;;;;;12.77;3.97;;;;;;;13.03;82.52;102327.84;4954200;29;20047;-75
2022/10/07 10:08:05;;;;;;;17.38;3.25;;;;;;;13.04;81.54;102320.91;4954518;29;20038;-77
2022/10/07 10:10:33;;;;;;;18.60;3.58;;;;;;;13.06;80.46;102319.06;4937759;29;20043;-75
2022/10/07 10:13:01;;;;;;;15.77;3.08;;;;;;;13.19;81.54;102321.03;4953886;29;20383;-75
2022/10/07 10:15:35;;;;;;;18.80;4.03;;;;;;;13.27;79.89;102318.03;4953877;29;20167;-76
2022/10/07 10:18:02;;;;;;;19.17;3.67;;;;;;;13.20;79.56;102301.13;4954103;29;20182;-76
2022/10/07 10:20:35;;;;;;;15.15;3.33;;;;;;;13.26;78.63;102297.34;4954123;29;20042;-74
2022/10/07 10:23:22;;;;;;;13.95;3.13;;;;;;;13.31;79.45;102309.19;4952928;29;20031;-79
2022/10/07 10:29:05;;;;;;;15.02;3.30;;;;;;;13.36;79.71;102301.16;4953501;28;20046;-75
2022/10/07 10:32:08;;;;;;;17.50;3.23;;;;;;;13.40;80.17;102290.56;4940433;29;20035;-73
2022/10/07 10:34:59;;;;;;;14.68;3.17;;;;;;;13.47;79.28;102284.13;4934527;28;20036;-78
2022/10/07 10:37:39;;;;;;;18.63;3.23;;;;;;;13.53;78.06;102284.72;4934499;29;20043;-79
2022/10/07 10:40:35;;;;;;;14.37;3.43;;;;;;;13.58;78.08;102278.38;4934352;29;20154;-80
2022/10/07 10:43:27;;;;;;;14.27;2.95;;;;;;;13.53;77.77;102259.59;4990596;28;20745;-80
2022/10/07 10:46:19;;;;;;;14.18;3.60;;;;;;;13.55;76.38;102264.72;4976553;28;20050;-76
2022/10/07 10:48:54;;;;;;;13.40;3.00;;;;;;;13.67;77.37;102274.47;4994479;28;20478;-79
2022/10/07 10:51:41;;;;;;;13.43;3.45;;;;;;;13.72;78.50;102262.91;4993721;28;20181;-79
2022/10/07 10:54:30;;;;;;;15.07;2.92;;;;;;;13.77;77.54;102265.28;4994288;28;20429;-76
2022/10/07 10:57:34;;;;;;;20.48;4.90;;;;;;;13.64;76.42;102235.66;4994256;28;20116;-79
2022/10/07 11:00:13;;;;;;;12.38;2.70;;;;;;;13.86;74.79;102243.97;4993992;28;20081;-83
2022/10/07 11:02:39;;;;;;;14.50;3.50;;;;;;;13.98;73.47;102252.88;4994135;28;20528;-79
2022/10/07 11:05:12;;;;;;;16.13;3.38;;;;;;;13.98;73.09;102235.53;4994398;28;20026;-81
2022/10/07 11:07:46;;;;;;;12.18;3.25;;;;;;;14.04;72.95;102247.34;4993758;28;20089;-80
2022/10/07 11:10:28;;;;;;;12.57;3.05;;;;;;;14.08;74.59;102233.28;4993754;28;20117;-83
2022/10/07 11:12:57;;;;;;;16.42;3.35;;;;;;;13.86;73.12;102196.41;5020697;23;20065;-79
2022/10/07 11:15:33;;;;;;;14.82;3.20;;;;;;;14.07;73.02;102226.41;5013343;28;20056;-76
2022/10/07 11:18:11;;;;;;;12.93;3.67;;;;;;;14.17;72.33;102237.13;5013576;28;20034;-74
2022/10/07 11:20:46;;;;;;;13.40;2.78;;;;;;;13.88;72.91;102190.22;5013334;28;20064;-78
2022/10/07 11:23:27;;;;;;;10.00;2.55;;;;;;;14.19;73.73;102233.50;5013466;28;20381;-77
2022/10/07 11:25:59;;;;;;;13.52;2.78;;;;;;;14.25;71.97;102230.56;5013543;28;20028;-76
2022/10/07 11:28:29;;;;;;;16.08;3.50;;;;;;;14.32;71.56;102215.47;5012275;28;20076;-74
2022/10/07 11:31:09;;;;;;;13.27;2.67;;;;;;;14.40;72.48;102207.25;5013318;28;20030;-74
2022/10/07 11:33:43;;;;;;;11.07;2.73;;;;;;;14.49;71.54;102207.59;5013253;28;20034;-80
2022/10/07 11:36:16;;;;;;;10.82;3.45;;;;;;;14.52;71.36;102204.81;5013257;28;20030;-78
2022/10/07 11:38:44;;;;;;;14.25;3.05;;;;;;;14.50;71.03;102177.22;5013149;28;20492;-78
2022/10/07 11:41:19;;;;;;;15.38;2.97;;;;;;;14.55;70.82;102182.97;5013332;28;20431;-76
2022/10/07 11:43:48;;;;;;;14.07;2.75;;;;;;;14.58;71.00;102165.47;5012976;28;20032;-79